VEJS/IXW METAR and TAF weather

Enter ICAO airport designator
Station Type Date Time Source
VEJS METAR 2019/02/18 04:00 UTC NOAA

VEJS 180400Z 00000KT 3000 HZ NSC 21/10 Q1014


Station Type Date Time Source
VEJS Decoded METAR 2019/02/18 04:00 UTC NOAA

Jamshedpur, India (VEJS) 22-49N 086-11E 142M
Feb 17, 2019 - 11:00 PM EST / 2019.02.18 0400 UTC
Wind: Calm:0
Visibility: 1 mile(s):0
Weather: haze
Temperature: 69 F (21 C)
Dew Point: 50 F (10 C)
Relative Humidity: 49%
Pressure (altimeter): 29.94 in. Hg (1014 hPa)
ob: VEJS 180400Z 00000KT 3000 HZ NSC 21/10 Q1014
cycle: 4

Station Type Date Time Source
VEJS TAF 2009/11/01 09:00 UTC NOAA

TAF VEJS 010900Z 0112/0121 36004KT 2500 HZ FEW020 SCT025 SCT100
BECMG 0116/0118 00000KT 2000 HZ FEW018 SCT
BECMG 0119/0121 00000KT 1600 BR


Example: see airport list